sensor_id;sensor_type;location;lat;lon;timestamp;temperature;humidity
2010;DHT22;1008;47.404;8.502;2023-11-22T00:00:13;8.70;99.90
2010;DHT22;1008;47.404;8.502;2023-11-22T00:02:40;8.80;99.90
2010;DHT22;1008;47.404;8.502;2023-11-22T00:05:07;8.60;99.90
2010;DHT22;1008;47.404;8.502;2023-11-22T00:07:36;8.70;99.90
2010;DHT22;1008;47.404;8.502;2023-11-22T00:10:03;8.60;99.90
2010;DHT22;1008;47.404;8.502;2023-11-22T00:12:31;8.60;99.90
2010;DHT22;1008;47.404;8.502;2023-11-22T00:15:02;8.70;99.90
2010;DHT22;1008;47.404;8.502;2023-11-22T00:17:29;8.80;99.90
2010;DHT22;1008;47.404;8.502;2023-11-22T00:19:56;8.70;99.90
2010;DHT22;1008;47.404;8.502;2023-11-22T00:22:23;8.60;99.90
2010;DHT22;1008;47.404;8.502;2023-11-22T00:24:51;8.60;99.90
2010;DHT22;1008;47.404;8.502;2023-11-22T00:27:17;8.60;99.90
2010;DHT22;1008;47.404;8.502;2023-11-22T00:29:44;8.70;99.90
2010;DHT22;1008;47.404;8.502;2023-11-22T00:32:11;8.80;99.90
2010;DHT22;1008;47.404;8.502;2023-11-22T00:34:38;8.70;99.90
2010;DHT22;1008;47.404;8.502;2023-11-22T00:37:05;8.60;99.90
2010;DHT22;1008;47.404;8.502;2023-11-22T00:39:31;8.50;99.90
2010;DHT22;1008;47.404;8.502;2023-11-22T00:41:59;8.50;99.90
2010;DHT22;1008;47.404;8.502;2023-11-22T00:44:26;8.50;99.90
2010;DHT22;1008;47.404;8.502;2023-11-22T00:46:53;8.60;99.90
2010;DHT22;1008;47.404;8.502;2023-11-22T00:49:21;8.50;99.90
2010;DHT22;1008;47.404;8.502;2023-11-22T00:51:48;8.60;99.90
2010;DHT22;1008;47.404;8.502;2023-11-22T00:54:15;8.50;99.90
2010;DHT22;1008;47.404;8.502;2023-11-22T00:56:42;8.50;99.90
2010;DHT22;1008;47.404;8.502;2023-11-22T00:59:10;8.60;99.90
2010;DHT22;1008;47.404;8.502;2023-11-22T01:01:37;8.50;99.90
2010;DHT22;1008;47.404;8.502;2023-11-22T01:04:04;8.50;99.90
2010;DHT22;1008;47.404;8.502;2023-11-22T01:06:32;8.50;99.90
2010;DHT22;1008;47.404;8.502;2023-11-22T01:08:59;8.60;99.90
2010;DHT22;1008;47.404;8.502;2023-11-22T01:11:25;8.60;99.90
2010;DHT22;1008;47.404;8.502;2023-11-22T01:13:52;8.50;99.90
2010;DHT22;1008;47.404;8.502;2023-11-22T01:16:20;8.60;99.90
2010;DHT22;1008;47.404;8.502;2023-11-22T01:18:48;8.60;99.90
2010;DHT22;1008;47.404;8.502;2023-11-22T01:21:14;8.60;99.90
2010;DHT22;1008;47.404;8.502;2023-11-22T01:23:41;8.50;99.90
2010;DHT22;1008;47.404;8.502;2023-11-22T01:26:08;8.50;99.90
2010;DHT22;1008;47.404;8.502;2023-11-22T01:28:35;8.50;99.90
2010;DHT22;1008;47.404;8.502;2023-11-22T01:31:02;8.60;99.90
2010;DHT22;1008;47.404;8.502;2023-11-22T01:33:31;8.60;99.90
2010;DHT22;1008;47.404;8.502;2023-11-22T01:36:00;8.30;99.90
2010;DHT22;1008;47.404;8.502;2023-11-22T01:38:26;8.30;99.90
2010;DHT22;1008;47.404;8.502;2023-11-22T01:40:53;8.30;99.90
2010;DHT22;1008;47.404;8.502;2023-11-22T01:43:20;8.50;99.90
2010;DHT22;1008;47.404;8.502;2023-11-22T01:45:49;8.50;99.90
2010;DHT22;1008;47.404;8.502;2023-11-22T01:48:16;8.40;99.90
2010;DHT22;1008;47.404;8.502;2023-11-22T01:50:44;8.40;99.90
2010;DHT22;1008;47.404;8.502;2023-11-22T01:53:12;8.40;99.90
2010;DHT22;1008;47.404;8.502;2023-11-22T01:55:39;8.60;99.90
2010;DHT22;1008;47.404;8.502;2023-11-22T01:58:07;8.50;99.90
2010;DHT22;1008;47.404;8.502;2023-11-22T02:00:40;8.50;99.90
2010;DHT22;1008;47.404;8.502;2023-11-22T02:03:08;8.50;99.90
2010;DHT22;1008;47.404;8.502;2023-11-22T02:05:35;8.40;99.90
2010;DHT22;1008;47.404;8.502;2023-11-22T02:08:03;8.40;99.90
2010;DHT22;1008;47.404;8.502;2023-11-22T02:10:30;8.40;99.90
2010;DHT22;1008;47.404;8.502;2023-11-22T02:12:56;8.50;99.90
2010;DHT22;1008;47.404;8.502;2023-11-22T02:15:24;8.50;99.90
2010;DHT22;1008;47.404;8.502;2023-11-22T02:17:50;8.40;99.90
2010;DHT22;1008;47.404;8.502;2023-11-22T02:20:17;8.50;99.90
2010;DHT22;1008;47.404;8.502;2023-11-22T02:22:45;8.60;99.90
2010;DHT22;1008;47.404;8.502;2023-11-22T02:25:13;8.80;99.90
2010;DHT22;1008;47.404;8.502;2023-11-22T02:27:40;8.50;99.90
2010;DHT22;1008;47.404;8.502;2023-11-22T02:30:08;8.50;99.90
2010;DHT22;1008;47.404;8.502;2023-11-22T02:32:36;8.60;99.90
2010;DHT22;1008;47.404;8.502;2023-11-22T02:35:04;8.40;99.90
2010;DHT22;1008;47.404;8.502;2023-11-22T02:37:33;8.50;99.90
2010;DHT22;1008;47.404;8.502;2023-11-22T02:40:04;8.60;99.90
2010;DHT22;1008;47.404;8.502;2023-11-22T02:42:33;8.50;99.90
2010;DHT22;1008;47.404;8.502;2023-11-22T02:45:00;8.50;99.90
2010;DHT22;1008;47.404;8.502;2023-11-22T02:47:27;8.50;99.90
2010;DHT22;1008;47.404;8.502;2023-11-22T02:49:53;8.40;99.90
2010;DHT22;1008;47.404;8.502;2023-11-22T02:52:20;8.40;99.90
2010;DHT22;1008;47.404;8.502;2023-11-22T02:54:47;8.30;99.90
2010;DHT22;1008;47.404;8.502;2023-11-22T02:57:14;8.40;99.90
2010;DHT22;1008;47.404;8.502;2023-11-22T02:59:43;8.50;99.90
2010;DHT22;1008;47.404;8.502;2023-11-22T03:02:10;8.60;99.90
2010;DHT22;1008;47.404;8.502;2023-11-22T03:04:36;8.40;99.90
2010;DHT22;1008;47.404;8.502;2023-11-22T03:07:04;8.60;99.90
2010;DHT22;1008;47.404;8.502;2023-11-22T03:09:31;8.50;99.90
2010;DHT22;1008;47.404;8.502;2023-11-22T03:11:58;8.60;99.90
2010;DHT22;1008;47.404;8.502;2023-11-22T03:14:25;8.60;99.90
2010;DHT22;1008;47.404;8.502;2023-11-22T03:16:53;8.60;99.90
2010;DHT22;1008;47.404;8.502;2023-11-22T03:19:20;8.50;99.90
2010;DHT22;1008;47.404;8.502;2023-11-22T03:21:46;8.40;99.90
2010;DHT22;1008;47.404;8.502;2023-11-22T03:24:14;8.50;99.90
2010;DHT22;1008;47.404;8.502;2023-11-22T03:26:41;8.50;99.90
2010;DHT22;1008;47.404;8.502;2023-11-22T03:29:08;8.40;99.90
2010;DHT22;1008;47.404;8.502;2023-11-22T03:31:35;8.40;99.90
2010;DHT22;1008;47.404;8.502;2023-11-22T03:34:04;8.60;99.90
2010;DHT22;1008;47.404;8.502;2023-11-22T03:36:31;8.40;99.90
2010;DHT22;1008;47.404;8.502;2023-11-22T03:38:58;8.40;99.90
2010;DHT22;1008;47.404;8.502;2023-11-22T03:41:24;8.50;99.90
2010;DHT22;1008;47.404;8.502;2023-11-22T03:43:51;8.50;99.90
2010;DHT22;1008;47.404;8.502;2023-11-22T03:46:18;8.50;99.90
2010;DHT22;1008;47.404;8.502;2023-11-22T03:48:45;8.40;99.90
2010;DHT22;1008;47.404;8.502;2023-11-22T03:51:13;8.60;99.90
2010;DHT22;1008;47.404;8.502;2023-11-22T03:53:41;8.40;99.90
2010;DHT22;1008;47.404;8.502;2023-11-22T03:56:08;8.60;99.90
2010;DHT22;1008;47.404;8.502;2023-11-22T03:58:35;8.50;99.90
2010;DHT22;1008;47.404;8.502;2023-11-22T04:01:02;8.50;99.90
2010;DHT22;1008;47.404;8.502;2023-11-22T04:03:29;8.40;99.90
2010;DHT22;1008;47.404;8.502;2023-11-22T04:05:55;8.40;99.90
2010;DHT22;1008;47.404;8.502;2023-11-22T04:08:24;8.40;99.90
2010;DHT22;1008;47.404;8.502;2023-11-22T04:10:50;8.30;99.90
2010;DHT22;1008;47.404;8.502;2023-11-22T04:13:17;8.50;99.90
2010;DHT22;1008;47.404;8.502;2023-11-22T04:15:44;8.30;99.90
2010;DHT22;1008;47.404;8.502;2023-11-22T04:18:12;8.40;99.90
2010;DHT22;1008;47.404;8.502;2023-11-22T04:20:39;8.50;99.90
2010;DHT22;1008;47.404;8.502;2023-11-22T04:23:06;8.50;99.90
2010;DHT22;1008;47.404;8.502;2023-11-22T04:25:37;8.30;99.90
2010;DHT22;1008;47.404;8.502;2023-11-22T04:28:04;8.40;99.90
2010;DHT22;1008;47.404;8.502;2023-11-22T04:30:34;8.50;99.90
2010;DHT22;1008;47.404;8.502;2023-11-22T04:33:01;8.40;99.90
2010;DHT22;1008;47.404;8.502;2023-11-22T04:35:28;8.60;99.90
2010;DHT22;1008;47.404;8.502;2023-11-22T04:37:54;8.40;99.90
2010;DHT22;1008;47.404;8.502;2023-11-22T04:40:21;8.50;99.90
2010;DHT22;1008;47.404;8.502;2023-11-22T04:42:49;8.60;99.90
2010;DHT22;1008;47.404;8.502;2023-11-22T04:45:16;8.60;99.90
2010;DHT22;1008;47.404;8.502;2023-11-22T04:47:42;8.60;99.90
2010;DHT22;1008;47.404;8.502;2023-11-22T04:50:10;8.70;99.90
2010;DHT22;1008;47.404;8.502;2023-11-22T04:52:37;8.50;99.90
2010;DHT22;1008;47.404;8.502;2023-11-22T04:55:05;8.50;99.90
2010;DHT22;1008;47.404;8.502;2023-11-22T04:57:31;8.50;99.90
2010;DHT22;1008;47.404;8.502;2023-11-22T05:00:00;8.50;99.90
2010;DHT22;1008;47.404;8.502;2023-11-22T05:02:29;8.60;99.90
2010;DHT22;1008;47.404;8.502;2023-11-22T05:04:55;8.60;99.90
2010;DHT22;1008;47.404;8.502;2023-11-22T05:07:22;8.70;99.90
2010;DHT22;1008;47.404;8.502;2023-11-22T05:09:49;8.60;99.90
2010;DHT22;1008;47.404;8.502;2023-11-22T05:12:15;8.60;99.90
2010;DHT22;1008;47.404;8.502;2023-11-22T05:14:42;8.30;99.90
2010;DHT22;1008;47.404;8.502;2023-11-22T05:17:12;8.20;99.90
2010;DHT22;1008;47.404;8.502;2023-11-22T05:19:39;8.50;99.90
2010;DHT22;1008;47.404;8.502;2023-11-22T05:22:07;8.50;99.90
2010;DHT22;1008;47.404;8.502;2023-11-22T05:24:34;8.50;99.90
2010;DHT22;1008;47.404;8.502;2023-11-22T05:27:02;8.60;99.90
2010;DHT22;1008;47.404;8.502;2023-11-22T05:29:28;8.60;99.90
2010;DHT22;1008;47.404;8.502;2023-11-22T05:31:55;8.40;99.90
2010;DHT22;1008;47.404;8.502;2023-11-22T05:34:23;8.40;99.90
2010;DHT22;1008;47.404;8.502;2023-11-22T05:36:50;8.30;99.90
2010;DHT22;1008;47.404;8.502;2023-11-22T05:39:16;8.30;99.90
2010;DHT22;1008;47.404;8.502;2023-11-22T05:41:44;8.50;99.90
2010;DHT22;1008;47.404;8.502;2023-11-22T05:44:10;8.50;99.90
2010;DHT22;1008;47.404;8.502;2023-11-22T05:46:37;8.50;99.90
2010;DHT22;1008;47.404;8.502;2023-11-22T05:49:04;8.60;99.90
2010;DHT22;1008;47.404;8.502;2023-11-22T05:51:32;8.40;99.90
2010;DHT22;1008;47.404;8.502;2023-11-22T05:53:59;8.60;99.90
2010;DHT22;1008;47.404;8.502;2023-11-22T05:56:26;8.50;99.90
2010;DHT22;1008;47.404;8.502;2023-11-22T05:58:52;8.70;99.90
2010;DHT22;1008;47.404;8.502;2023-11-22T06:01:19;8.60;99.90
2010;DHT22;1008;47.404;8.502;2023-11-22T06:03:46;8.60;99.90
2010;DHT22;1008;47.404;8.502;2023-11-22T06:06:14;8.40;99.90
2010;DHT22;1008;47.404;8.502;2023-11-22T06:08:42;8.60;99.90
2010;DHT22;1008;47.404;8.502;2023-11-22T06:11:09;8.60;99.90
2010;DHT22;1008;47.404;8.502;2023-11-22T06:13:35;8.50;99.90
2010;DHT22;1008;47.404;8.502;2023-11-22T06:16:02;8.50;99.90
2010;DHT22;1008;47.404;8.502;2023-11-22T06:18:29;8.50;99.90
2010;DHT22;1008;47.404;8.502;2023-11-22T06:20:56;8.50;99.90
2010;DHT22;1008;47.404;8.502;2023-11-22T06:23:23;8.50;99.90
2010;DHT22;1008;47.404;8.502;2023-11-22T06:25:51;8.50;99.90
2010;DHT22;1008;47.404;8.502;2023-11-22T06:28:17;8.40;99.90
2010;DHT22;1008;47.404;8.502;2023-11-22T06:30:44;8.60;99.90
2010;DHT22;1008;47.404;8.502;2023-11-22T06:33:11;8.70;99.90
2010;DHT22;1008;47.404;8.502;2023-11-22T06:35:37;8.80;99.90
2010;DHT22;1008;47.404;8.502;2023-11-22T06:38:04;8.80;99.90
2010;DHT22;1008;47.404;8.502;2023-11-22T06:40:31;8.40;99.90
2010;DHT22;1008;47.404;8.502;2023-11-22T06:42:59;8.30;99.90
2010;DHT22;1008;47.404;8.502;2023-11-22T06:45:26;8.00;99.90
2010;DHT22;1008;47.404;8.502;2023-11-22T06:47:52;8.00;99.90
2010;DHT22;1008;47.404;8.502;2023-11-22T06:50:19;7.70;99.90
2010;DHT22;1008;47.404;8.502;2023-11-22T06:52:46;7.60;99.90
2010;DHT22;1008;47.404;8.502;2023-11-22T06:55:15;7.50;99.90
2010;DHT22;1008;47.404;8.502;2023-11-22T06:57:43;7.60;99.90
2010;DHT22;1008;47.404;8.502;2023-11-22T07:00:11;7.50;99.90
2010;DHT22;1008;47.404;8.502;2023-11-22T07:02:38;7.60;99.90
2010;DHT22;1008;47.404;8.502;2023-11-22T07:05:06;7.40;99.90
2010;DHT22;1008;47.404;8.502;2023-11-22T07:07:34;7.40;99.90
2010;DHT22;1008;47.404;8.502;2023-11-22T07:10:01;7.30;99.90
2010;DHT22;1008;47.404;8.502;2023-11-22T07:12:30;7.20;99.90
2010;DHT22;1008;47.404;8.502;2023-11-22T07:14:57;7.30;99.90
2010;DHT22;1008;47.404;8.502;2023-11-22T07:17:26;7.20;99.90
2010;DHT22;1008;47.404;8.502;2023-11-22T07:19:54;7.20;99.90
2010;DHT22;1008;47.404;8.502;2023-11-22T07:22:21;7.20;99.90
2010;DHT22;1008;47.404;8.502;2023-11-22T07:24:49;7.10;99.90
2010;DHT22;1008;47.404;8.502;2023-11-22T07:27:18;7.00;99.90
2010;DHT22;1008;47.404;8.502;2023-11-22T07:29:45;7.10;99.90
2010;DHT22;1008;47.404;8.502;2023-11-22T07:32:12;7.20;99.90
2010;DHT22;1008;47.404;8.502;2023-11-22T07:34:40;7.00;99.90
2010;DHT22;1008;47.404;8.502;2023-11-22T07:37:07;7.00;99.90
2010;DHT22;1008;47.404;8.502;2023-11-22T07:39:34;7.10;99.90
2010;DHT22;1008;47.404;8.502;2023-11-22T07:42:01;7.30;99.90
2010;DHT22;1008;47.404;8.502;2023-11-22T07:44:28;7.20;99.90
2010;DHT22;1008;47.404;8.502;2023-11-22T07:46:58;7.20;99.90
2010;DHT22;1008;47.404;8.502;2023-11-22T07:49:25;7.10;99.90
2010;DHT22;1008;47.404;8.502;2023-11-22T07:51:53;7.00;99.90
2010;DHT22;1008;47.404;8.502;2023-11-22T07:54:21;7.10;99.90
2010;DHT22;1008;47.404;8.502;2023-11-22T07:56:48;7.10;99.90
2010;DHT22;1008;47.404;8.502;2023-11-22T07:59:15;6.90;99.90
2010;DHT22;1008;47.404;8.502;2023-11-22T08:01:42;6.80;99.90
2010;DHT22;1008;47.404;8.502;2023-11-22T08:04:09;6.70;99.90
2010;DHT22;1008;47.404;8.502;2023-11-22T08:06:36;6.80;99.90
2010;DHT22;1008;47.404;8.502;2023-11-22T08:09:05;6.80;99.90
2010;DHT22;1008;47.404;8.502;2023-11-22T08:11:34;6.80;99.90
2010;DHT22;1008;47.404;8.502;2023-11-22T08:14:01;6.70;99.90
2010;DHT22;1008;47.404;8.502;2023-11-22T08:16:28;6.80;99.90
2010;DHT22;1008;47.404;8.502;2023-11-22T08:18:55;6.60;99.90
2010;DHT22;1008;47.404;8.502;2023-11-22T08:21:22;6.50;99.90
2010;DHT22;1008;47.404;8.502;2023-11-22T08:23:49;6.50;99.90
2010;DHT22;1008;47.404;8.502;2023-11-22T08:26:17;6.50;99.90
2010;DHT22;1008;47.404;8.502;2023-11-22T08:28:44;6.60;99.90
2010;DHT22;1008;47.404;8.502;2023-11-22T08:31:10;6.50;99.90
2010;DHT22;1008;47.404;8.502;2023-11-22T08:33:38;6.40;99.90
2010;DHT22;1008;47.404;8.502;2023-11-22T08:36:05;6.50;99.90
2010;DHT22;1008;47.404;8.502;2023-11-22T08:38:32;6.60;99.90
2010;DHT22;1008;47.404;8.502;2023-11-22T08:41:01;6.50;99.90
2010;DHT22;1008;47.404;8.502;2023-11-22T08:43:29;6.70;99.90
2010;DHT22;1008;47.404;8.502;2023-11-22T08:45:57;6.50;99.90
2010;DHT22;1008;47.404;8.502;2023-11-22T08:48:24;6.60;99.90
2010;DHT22;1008;47.404;8.502;2023-11-22T08:50:50;6.70;99.90
2010;DHT22;1008;47.404;8.502;2023-11-22T08:53:19;6.70;99.90
2010;DHT22;1008;47.404;8.502;2023-11-22T08:55:46;6.70;99.90
2010;DHT22;1008;47.404;8.502;2023-11-22T08:58:12;6.70;99.90
2010;DHT22;1008;47.404;8.502;2023-11-22T09:00:41;6.70;99.90
2010;DHT22;1008;47.404;8.502;2023-11-22T09:03:08;6.70;99.90
2010;DHT22;1008;47.404;8.502;2023-11-22T09:05:36;6.60;99.90
2010;DHT22;1008;47.404;8.502;2023-11-22T09:08:03;6.60;99.90
2010;DHT22;1008;47.404;8.502;2023-11-22T09:10:30;6.70;99.90
2010;DHT22;1008;47.404;8.502;2023-11-22T09:12:56;6.70;99.90
2010;DHT22;1008;47.404;8.502;2023-11-22T09:15:25;6.50;99.90
2010;DHT22;1008;47.404;8.502;2023-11-22T09:17:56;6.40;99.90
2010;DHT22;1008;47.404;8.502;2023-11-22T09:20:23;6.30;99.90
2010;DHT22;1008;47.404;8.502;2023-11-22T09:22:51;6.40;99.90
2010;DHT22;1008;47.404;8.502;2023-11-22T09:25:20;6.40;99.90
2010;DHT22;1008;47.404;8.502;2023-11-22T09:27:50;6.30;99.90
2010;DHT22;1008;47.404;8.502;2023-11-22T09:30:19;6.30;99.90
2010;DHT22;1008;47.404;8.502;2023-11-22T09:32:59;6.40;99.90
2010;DHT22;1008;47.404;8.502;2023-11-22T09:35:26;6.40;99.90
2010;DHT22;1008;47.404;8.502;2023-11-22T09:37:54;6.60;99.90
2010;DHT22;1008;47.404;8.502;2023-11-22T09:40:22;6.50;99.90
2010;DHT22;1008;47.404;8.502;2023-11-22T09:42:49;6.60;99.90
2010;DHT22;1008;47.404;8.502;2023-11-22T09:45:19;6.60;99.90
2010;DHT22;1008;47.404;8.502;2023-11-22T09:47:46;6.60;99.90
2010;DHT22;1008;47.404;8.502;2023-11-22T09:50:19;6.60;99.90
2010;DHT22;1008;47.404;8.502;2023-11-22T09:52:50;6.70;99.90
2010;DHT22;1008;47.404;8.502;2023-11-22T09:55:20;6.70;99.90
2010;DHT22;1008;47.404;8.502;2023-11-22T09:57:48;6.60;99.90
2010;DHT22;1008;47.404;8.502;2023-11-22T10:00:16;6.50;99.90
2010;DHT22;1008;47.404;8.502;2023-11-22T10:02:44;6.50;99.90
2010;DHT22;1008;47.404;8.502;2023-11-22T10:05:11;6.50;99.90
2010;DHT22;1008;47.404;8.502;2023-11-22T10:07:39;6.60;99.90
2010;DHT22;1008;47.404;8.502;2023-11-22T10:10:07;6.40;99.90
2010;DHT22;1008;47.404;8.502;2023-11-22T10:12:36;6.50;99.90
2010;DHT22;1008;47.404;8.502;2023-11-22T10:15:12;6.10;99.90
2010;DHT22;1008;47.404;8.502;2023-11-22T10:17:39;6.30;99.90
2010;DHT22;1008;47.404;8.502;2023-11-22T10:20:08;6.10;99.90
2010;DHT22;1008;47.404;8.502;2023-11-22T10:22:47;6.10;99.90
2010;DHT22;1008;47.404;8.502;2023-11-22T10:25:14;6.20;99.90
2010;DHT22;1008;47.404;8.502;2023-11-22T10:27:44;6.40;99.90
2010;DHT22;1008;47.404;8.502;2023-11-22T10:30:12;6.50;99.90
2010;DHT22;1008;47.404;8.502;2023-11-22T10:32:40;6.60;99.90
2010;DHT22;1008;47.404;8.502;2023-11-22T10:35:07;6.60;99.90
2010;DHT22;1008;47.404;8.502;2023-11-22T10:37:35;6.60;99.90
2010;DHT22;1008;47.404;8.502;2023-11-22T10:40:05;6.70;99.90
2010;DHT22;1008;47.404;8.502;2023-11-22T10:42:33;6.50;99.90
2010;DHT22;1008;47.404;8.502;2023-11-22T10:45:01;6.60;99.90
2010;DHT22;1008;47.404;8.502;2023-11-22T10:47:30;6.70;99.90
2010;DHT22;1008;47.404;8.502;2023-11-22T10:49:57;6.60;99.90
2010;DHT22;1008;47.404;8.502;2023-11-22T10:52:27;6.70;99.90
2010;DHT22;1008;47.404;8.502;2023-11-22T10:55:01;6.90;99.90
2010;DHT22;1008;47.404;8.502;2023-11-22T10:57:31;7.00;99.90
2010;DHT22;1008;47.404;8.502;2023-11-22T11:00:02;7.20;99.90
2010;DHT22;1008;47.404;8.502;2023-11-22T11:02:33;7.00;99.90
2010;DHT22;1008;47.404;8.502;2023-11-22T11:05:06;7.00;99.90
2010;DHT22;1008;47.404;8.502;2023-11-22T11:07:40;6.90;99.90
2010;DHT22;1008;47.404;8.502;2023-11-22T11:10:08;6.80;99.90
2010;DHT22;1008;47.404;8.502;2023-11-22T11:12:38;6.90;99.90
2010;DHT22;1008;47.404;8.502;2023-11-22T11:15:05;6.90;99.90
2010;DHT22;1008;47.404;8.502;2023-11-22T11:17:33;6.90;99.90
2010;DHT22;1008;47.404;8.502;2023-11-22T11:20:01;7.10;99.90
2010;DHT22;1008;47.404;8.502;2023-11-22T11:22:30;7.20;99.90
2010;DHT22;1008;47.404;8.502;2023-11-22T11:25:01;7.20;99.90
2010;DHT22;1008;47.404;8.502;2023-11-22T11:27:28;7.20;99.90
2010;DHT22;1008;47.404;8.502;2023-11-22T11:29:57;7.20;99.90
2010;DHT22;1008;47.404;8.502;2023-11-22T11:32:33;7.20;99.90
2010;DHT22;1008;47.404;8.502;2023-11-22T11:35:00;6.90;99.90
2010;DHT22;1008;47.404;8.502;2023-11-22T11:37:32;7.00;99.90
2010;DHT22;1008;47.404;8.502;2023-11-22T11:39:58;7.00;99.90
2010;DHT22;1008;47.404;8.502;2023-11-22T11:42:25;7.00;99.90
2010;DHT22;1008;47.404;8.502;2023-11-22T11:45:05;6.80;99.90
2010;DHT22;1008;47.404;8.502;2023-11-22T11:47:33;6.90;99.90
2010;DHT22;1008;47.404;8.502;2023-11-22T11:49:59;6.90;99.90
2010;DHT22;1008;47.404;8.502;2023-11-22T11:52:27;6.80;99.90
2010;DHT22;1008;47.404;8.502;2023-11-22T11:54:54;6.90;99.90
2010;DHT22;1008;47.404;8.502;2023-11-22T11:57:23;6.90;99.90
2010;DHT22;1008;47.404;8.502;2023-11-22T11:59:50;7.10;99.90
2010;DHT22;1008;47.404;8.502;2023-11-22T12:02:18;7.00;99.90
2010;DHT22;1008;47.404;8.502;2023-11-22T12:04:45;7.00;99.90
2010;DHT22;1008;47.404;8.502;2023-11-22T12:07:12;7.00;99.90
2010;DHT22;1008;47.404;8.502;2023-11-22T12:09:39;7.00;99.90
2010;DHT22;1008;47.404;8.502;2023-11-22T12:12:06;6.80;99.90
2010;DHT22;1008;47.404;8.502;2023-11-22T12:14:33;6.80;99.90
2010;DHT22;1008;47.404;8.502;2023-11-22T12:17:00;6.80;99.90
2010;DHT22;1008;47.404;8.502;2023-11-22T12:19:29;6.90;99.90
2010;DHT22;1008;47.404;8.502;2023-11-22T12:21:57;7.10;99.90
2010;DHT22;1008;47.404;8.502;2023-11-22T12:24:24;7.40;99.90
2010;DHT22;1008;47.404;8.502;2023-11-22T12:26:51;7.30;99.90
2010;DHT22;1008;47.404;8.502;2023-11-22T12:29:20;7.30;99.90
2010;DHT22;1008;47.404;8.502;2023-11-22T12:31:50;7.30;99.90
2010;DHT22;1008;47.404;8.502;2023-11-22T12:34:18;7.40;99.90
2010;DHT22;1008;47.404;8.502;2023-11-22T12:36:48;7.80;99.90
2010;DHT22;1008;47.404;8.502;2023-11-22T12:39:15;8.20;99.90
2010;DHT22;1008;47.404;8.502;2023-11-22T12:41:44;8.20;99.90
2010;DHT22;1008;47.404;8.502;2023-11-22T12:44:11;8.10;99.90
2010;DHT22;1008;47.404;8.502;2023-11-22T12:46:46;7.90;99.90
2010;DHT22;1008;47.404;8.502;2023-11-22T12:49:15;8.20;99.90
2010;DHT22;1008;47.404;8.502;2023-11-22T12:51:48;7.80;99.90
2010;DHT22;1008;47.404;8.502;2023-11-22T12:54:15;7.80;99.90
2010;DHT22;1008;47.404;8.502;2023-11-22T12:56:42;7.70;99.90
2010;DHT22;1008;47.404;8.502;2023-11-22T12:59:08;7.50;99.90
2010;DHT22;1008;47.404;8.502;2023-11-22T13:01:36;7.50;99.90
2010;DHT22;1008;47.404;8.502;2023-11-22T13:04:03;7.40;99.90
2010;DHT22;1008;47.404;8.502;2023-11-22T13:06:30;7.30;99.90
2010;DHT22;1008;47.404;8.502;2023-11-22T13:08:58;7.20;99.90
2010;DHT22;1008;47.404;8.502;2023-11-22T13:11:25;6.90;99.90
2010;DHT22;1008;47.404;8.502;2023-11-22T13:13:52;6.90;99.90
2010;DHT22;1008;47.404;8.502;2023-11-22T13:16:18;6.90;99.90
2010;DHT22;1008;47.404;8.502;2023-11-22T13:18:46;6.90;99.90
2010;DHT22;1008;47.404;8.502;2023-11-22T13:21:13;7.10;99.90
2010;DHT22;1008;47.404;8.502;2023-11-22T13:23:40;6.80;99.90
2010;DHT22;1008;47.404;8.502;2023-11-22T13:26:08;6.80;99.90
2010;DHT22;1008;47.404;8.502;2023-11-22T13:28:38;6.70;99.90
2010;DHT22;1008;47.404;8.502;2023-11-22T13:31:06;6.70;99.90
2010;DHT22;1008;47.404;8.502;2023-11-22T13:33:33;6.90;99.90
2010;DHT22;1008;47.404;8.502;2023-11-22T13:36:00;6.80;99.90
2010;DHT22;1008;47.404;8.502;2023-11-22T13:38:26;6.60;99.90
2010;DHT22;1008;47.404;8.502;2023-11-22T13:40:53;6.60;99.90
2010;DHT22;1008;47.404;8.502;2023-11-22T13:43:21;6.50;99.90
2010;DHT22;1008;47.404;8.502;2023-11-22T13:45:48;6.40;99.90
2010;DHT22;1008;47.404;8.502;2023-11-22T13:48:15;6.60;99.90
2010;DHT22;1008;47.404;8.502;2023-11-22T13:50:42;6.60;99.90
2010;DHT22;1008;47.404;8.502;2023-11-22T13:53:10;6.60;99.90
2010;DHT22;1008;47.404;8.502;2023-11-22T13:55:36;6.60;99.90
2010;DHT22;1008;47.404;8.502;2023-11-22T13:58:04;6.50;99.90
2010;DHT22;1008;47.404;8.502;2023-11-22T14:00:34;6.60;99.90
2010;DHT22;1008;47.404;8.502;2023-11-22T14:03:02;6.80;99.90
2010;DHT22;1008;47.404;8.502;2023-11-22T14:05:32;6.60;99.90
2010;DHT22;1008;47.404;8.502;2023-11-22T14:07:59;6.70;99.90
2010;DHT22;1008;47.404;8.502;2023-11-22T14:10:26;6.60;99.90
2010;DHT22;1008;47.404;8.502;2023-11-22T14:12:54;6.70;99.90
2010;DHT22;1008;47.404;8.502;2023-11-22T14:15:25;6.60;99.90
2010;DHT22;1008;47.404;8.502;2023-11-22T14:17:54;6.50;99.90
2010;DHT22;1008;47.404;8.502;2023-11-22T14:20:21;6.60;99.90
2010;DHT22;1008;47.404;8.502;2023-11-22T14:22:49;6.60;99.90
2010;DHT22;1008;47.404;8.502;2023-11-22T14:25:16;6.30;99.90
2010;DHT22;1008;47.404;8.502;2023-11-22T14:27:44;6.40;99.90
2010;DHT22;1008;47.404;8.502;2023-11-22T14:30:12;6.30;99.90
2010;DHT22;1008;47.404;8.502;2023-11-22T14:32:43;6.30;99.90
2010;DHT22;1008;47.404;8.502;2023-11-22T14:35:11;6.20;99.90
2010;DHT22;1008;47.404;8.502;2023-11-22T14:37:38;6.20;99.90
2010;DHT22;1008;47.404;8.502;2023-11-22T14:40:06;6.20;99.90
2010;DHT22;1008;47.404;8.502;2023-11-22T14:42:39;6.20;99.90
2010;DHT22;1008;47.404;8.502;2023-11-22T14:45:07;6.20;99.90
2010;DHT22;1008;47.404;8.502;2023-11-22T14:47:34;6.10;99.90
2010;DHT22;1008;47.404;8.502;2023-11-22T14:50:02;6.20;99.90
2010;DHT22;1008;47.404;8.502;2023-11-22T14:52:31;6.10;99.90
2010;DHT22;1008;47.404;8.502;2023-11-22T14:54:58;6.20;99.90
2010;DHT22;1008;47.404;8.502;2023-11-22T14:57:26;6.10;99.90
2010;DHT22;1008;47.404;8.502;2023-11-22T14:59:52;6.00;99.90
2010;DHT22;1008;47.404;8.502;2023-11-22T15:02:20;6.00;99.90
2010;DHT22;1008;47.404;8.502;2023-11-22T15:04:47;6.00;99.90
2010;DHT22;1008;47.404;8.502;2023-11-22T15:07:13;5.90;99.90
2010;DHT22;1008;47.404;8.502;2023-11-22T15:09:41;6.10;99.90
2010;DHT22;1008;47.404;8.502;2023-11-22T15:12:08;6.10;99.90
2010;DHT22;1008;47.404;8.502;2023-11-22T15:14:35;6.00;99.90
2010;DHT22;1008;47.404;8.502;2023-11-22T15:17:03;6.20;99.90
2010;DHT22;1008;47.404;8.502;2023-11-22T15:19:30;6.20;99.90
2010;DHT22;1008;47.404;8.502;2023-11-22T15:21:56;6.30;99.90
2010;DHT22;1008;47.404;8.502;2023-11-22T15:24:24;6.20;99.90
2010;DHT22;1008;47.404;8.502;2023-11-22T15:26:53;5.90;99.90
2010;DHT22;1008;47.404;8.502;2023-11-22T15:29:21;5.90;99.90
2010;DHT22;1008;47.404;8.502;2023-11-22T15:31:48;5.90;99.90
2010;DHT22;1008;47.404;8.502;2023-11-22T15:34:16;5.80;99.90
2010;DHT22;1008;47.404;8.502;2023-11-22T15:36:43;6.00;99.90
2010;DHT22;1008;47.404;8.502;2023-11-22T15:39:11;6.10;99.90
2010;DHT22;1008;47.404;8.502;2023-11-22T15:41:40;5.90;99.90
2010;DHT22;1008;47.404;8.502;2023-11-22T15:44:10;6.00;99.90
2010;DHT22;1008;47.404;8.502;2023-11-22T15:46:38;6.00;99.90
2010;DHT22;1008;47.404;8.502;2023-11-22T15:49:06;5.90;99.90
2010;DHT22;1008;47.404;8.502;2023-11-22T15:51:33;5.90;99.90
2010;DHT22;1008;47.404;8.502;2023-11-22T15:54:00;5.70;99.90
2010;DHT22;1008;47.404;8.502;2023-11-22T15:56:26;5.80;99.90
2010;DHT22;1008;47.404;8.502;2023-11-22T15:58:53;5.80;99.90
2010;DHT22;1008;47.404;8.502;2023-11-22T16:01:25;5.80;99.90
2010;DHT22;1008;47.404;8.502;2023-11-22T16:03:52;5.80;99.90
2010;DHT22;1008;47.404;8.502;2023-11-22T16:06:19;5.70;99.90
2010;DHT22;1008;47.404;8.502;2023-11-22T16:08:46;5.60;99.90
2010;DHT22;1008;47.404;8.502;2023-11-22T16:11:13;5.60;99.90
2010;DHT22;1008;47.404;8.502;2023-11-22T16:13:41;5.50;99.90
2010;DHT22;1008;47.404;8.502;2023-11-22T16:16:09;5.60;99.90
2010;DHT22;1008;47.404;8.502;2023-11-22T16:18:38;5.50;99.90